createdAt,value
2023-01-29T00:00:30.712Z,0.00
2023-01-29T00:01:30.724Z,0.00
2023-01-29T00:02:30.813Z,0.00
2023-01-29T00:03:30.692Z,0.00
2023-01-29T00:04:31.689Z,0.00
2023-01-29T00:05:31.677Z,0.00
2023-01-29T00:06:30.754Z,0.00
2023-01-29T00:07:30.667Z,0.00
2023-01-29T00:08:30.680Z,0.00
2023-01-29T00:09:30.672Z,0.00
2023-01-29T00:10:30.667Z,0.00
2023-01-29T00:11:30.768Z,0.00
2023-01-29T00:12:30.668Z,0.00
2023-01-29T00:13:30.630Z,0.00
2023-01-29T00:14:30.636Z,0.00
2023-01-29T00:15:30.618Z,0.00
2023-01-29T00:16:30.616Z,0.00
2023-01-29T00:17:30.602Z,0.00
2023-01-29T00:18:30.604Z,0.00
2023-01-29T00:19:30.594Z,0.00
2023-01-29T00:20:31.134Z,0.00
2023-01-29T00:21:31.165Z,0.00
2023-01-29T00:22:30.574Z,0.00
2023-01-29T00:23:30.583Z,0.00
2023-01-29T00:24:30.617Z,0.00
2023-01-29T00:25:30.564Z,0.00
2023-01-29T00:26:30.548Z,0.00
2023-01-29T00:27:30.543Z,0.00
2023-01-29T00:28:30.533Z,0.00
2023-01-29T00:29:30.529Z,0.00
2023-01-29T00:30:30.531Z,0.00
2023-01-29T00:31:30.616Z,0.00
2023-01-29T00:32:30.515Z,0.00
2023-01-29T00:33:30.500Z,0.00
2023-01-29T00:34:30.503Z,0.00
2023-01-29T00:35:30.522Z,0.00
2023-01-29T00:36:30.489Z,0.00
2023-01-29T00:37:30.632Z,0.00
2023-01-29T00:38:30.477Z,0.00
2023-01-29T00:39:46.030Z,0.00
2023-01-29T00:40:30.657Z,0.00
2023-01-29T00:41:30.447Z,0.00
2023-01-29T00:42:30.455Z,0.00
2023-01-29T00:43:30.441Z,0.00
2023-01-29T00:44:30.446Z,0.00
2023-01-29T00:45:30.435Z,0.00
2023-01-29T00:46:30.472Z,0.00
2023-01-29T00:47:30.433Z,0.00
2023-01-29T00:48:30.419Z,0.00
2023-01-29T00:49:30.462Z,0.00
2023-01-29T00:50:30.423Z,0.00
2023-01-29T00:51:30.415Z,0.00
2023-01-29T00:52:30.408Z,0.00
2023-01-29T00:53:30.375Z,0.00
2023-01-29T00:54:32.383Z,0.00
2023-01-29T00:55:30.420Z,0.00
2023-01-29T00:56:30.373Z,0.00
2023-01-29T00:57:30.367Z,0.00
2023-01-29T00:58:30.351Z,0.00
2023-01-29T00:59:30.357Z,0.00
2023-01-29T01:00:30.460Z,0.00
2023-01-29T01:01:30.334Z,0.00
2023-01-29T01:02:30.333Z,0.00
2023-01-29T01:03:30.319Z,0.00
2023-01-29T01:04:30.321Z,0.00
2023-01-29T01:05:30.413Z,0.00
2023-01-29T01:06:30.312Z,0.00
2023-01-29T01:07:30.307Z,0.00
2023-01-29T01:08:30.323Z,0.00
2023-01-29T01:09:30.287Z,0.00
2023-01-29T01:10:30.303Z,0.00
2023-01-29T01:11:30.277Z,0.00
2023-01-29T01:12:30.368Z,0.00
2023-01-29T01:13:30.255Z,0.00
2023-01-29T01:14:30.264Z,0.00
2023-01-29T01:15:30.265Z,0.00
2023-01-29T01:16:30.289Z,0.00
2023-01-29T01:17:30.239Z,0.00
2023-01-29T01:18:30.245Z,0.00
2023-01-29T01:19:30.232Z,0.00
2023-01-29T01:20:30.375Z,0.00
2023-01-29T01:21:30.231Z,0.00
2023-01-29T01:22:30.245Z,0.00
2023-01-29T01:23:30.218Z,0.00
2023-01-29T01:24:30.332Z,0.00
2023-01-29T01:25:30.202Z,0.00
2023-01-29T01:26:30.186Z,0.00
2023-01-29T01:27:30.191Z,0.00
2023-01-29T01:28:30.171Z,0.00
2023-01-29T01:29:30.164Z,0.00
2023-01-29T01:30:30.201Z,0.00
2023-01-29T01:31:30.195Z,0.00
2023-01-29T01:32:30.146Z,0.00
2023-01-29T01:33:30.140Z,0.00
2023-01-29T01:34:30.141Z,0.00
2023-01-29T01:35:30.150Z,0.00
2023-01-29T01:36:30.131Z,0.00
2023-01-29T01:37:30.131Z,0.00
2023-01-29T01:38:30.148Z,0.00
2023-01-29T01:39:30.116Z,0.00
2023-01-29T01:40:30.117Z,0.00
2023-01-29T01:41:30.086Z,0.00
2023-01-29T01:42:30.091Z,0.00
2023-01-29T01:43:30.171Z,0.00
2023-01-29T01:44:30.077Z,0.00
2023-01-29T01:45:30.174Z,0.00
2023-01-29T01:46:30.066Z,0.00
2023-01-29T01:47:30.069Z,0.00
2023-01-29T01:48:30.053Z,0.00
2023-01-29T01:49:30.053Z,0.00
2023-01-29T01:50:30.064Z,0.00
2023-01-29T01:51:30.033Z,0.00
2023-01-29T01:52:30.033Z,0.00
2023-01-29T01:53:30.012Z,0.00
2023-01-29T01:54:30.063Z,0.00
2023-01-29T01:55:30.048Z,0.00
2023-01-29T01:56:30.022Z,0.00
2023-01-29T01:57:30.692Z,0.00
2023-01-29T01:58:30.959Z,0.00
2023-01-29T01:59:30.080Z,0.00
2023-01-29T02:00:30.088Z,0.00
2023-01-29T02:01:30.116Z,0.00
2023-01-29T02:02:30.109Z,0.00
2023-01-29T02:03:30.155Z,0.00
2023-01-29T02:04:30.186Z,0.00
2023-01-29T02:05:30.200Z,0.00
2023-01-29T02:06:30.340Z,0.00
2023-01-29T02:07:30.336Z,0.00
2023-01-29T02:08:30.353Z,0.00
2023-01-29T02:09:30.148Z,0.00
2023-01-29T02:10:29.968Z,0.00
2023-01-29T02:11:30.581Z,0.00
2023-01-29T02:12:30.575Z,0.00
2023-01-29T02:13:30.245Z,0.00
2023-01-29T02:14:30.670Z,0.00
2023-01-29T02:15:30.394Z,0.00
2023-01-29T02:16:30.844Z,0.00
2023-01-29T02:17:30.844Z,0.00
2023-01-29T02:18:30.855Z,0.00
2023-01-29T02:19:29.879Z,0.00
2023-01-29T02:20:29.888Z,0.00
2023-01-29T02:21:29.893Z,0.00
2023-01-29T02:22:29.872Z,0.00
2023-01-29T02:23:29.872Z,0.00
2023-01-29T02:24:30.098Z,0.00
2023-01-29T02:25:30.680Z,0.00
2023-01-29T02:26:30.135Z,0.00
2023-01-29T02:27:29.831Z,0.00
2023-01-29T02:28:30.651Z,0.00
2023-01-29T02:29:30.817Z,0.00
2023-01-29T02:30:29.832Z,0.00
2023-01-29T02:31:30.728Z,0.00
2023-01-29T02:32:30.740Z,0.00
2023-01-29T02:33:29.789Z,0.00
2023-01-29T02:34:29.788Z,0.00
2023-01-29T02:35:29.839Z,0.00
2023-01-29T02:36:29.788Z,0.00
2023-01-29T02:37:29.787Z,0.00
2023-01-29T02:38:29.936Z,0.00
2023-01-29T02:39:29.955Z,0.00
2023-01-29T02:40:29.956Z,0.00
2023-01-29T02:41:29.755Z,0.00
2023-01-29T02:42:30.028Z,0.00
2023-01-29T02:43:30.174Z,0.00
2023-01-29T02:44:29.851Z,0.00
2023-01-29T02:45:30.193Z,0.00
2023-01-29T02:46:30.202Z,0.00
2023-01-29T02:47:30.265Z,0.00
2023-01-29T02:48:30.014Z,0.00
2023-01-29T02:49:29.819Z,0.00
2023-01-29T02:50:29.832Z,0.00
2023-01-29T02:51:30.451Z,0.00
2023-01-29T02:52:29.851Z,0.00
2023-01-29T02:53:29.683Z,0.00
2023-01-29T02:54:29.668Z,0.00
2023-01-29T02:55:30.111Z,0.00
2023-01-29T02:56:30.088Z,0.00
2023-01-29T02:57:30.107Z,0.00
2023-01-29T02:58:30.094Z,0.00
2023-01-29T02:59:30.127Z,0.00
2023-01-29T03:00:30.145Z,0.00
2023-01-29T03:01:29.759Z,0.00
2023-01-29T03:02:30.013Z,0.00
2023-01-29T03:03:30.139Z,0.00
2023-01-29T03:04:30.127Z,0.00
2023-01-29T03:05:29.803Z,0.00
2023-01-29T03:06:29.598Z,0.00
2023-01-29T03:07:29.577Z,0.00
2023-01-29T03:08:30.606Z,0.00
2023-01-29T03:09:30.176Z,0.00
2023-01-29T03:10:29.755Z,0.00
2023-01-29T03:11:29.605Z,0.00
2023-01-29T03:12:29.569Z,0.00
2023-01-29T03:13:29.568Z,0.00
2023-01-29T03:14:29.574Z,0.00
2023-01-29T03:15:29.631Z,0.00
2023-01-29T03:16:29.542Z,0.00
2023-01-29T03:17:29.818Z,0.00
2023-01-29T03:18:29.814Z,0.00
2023-01-29T03:19:29.502Z,0.00
2023-01-29T03:20:29.542Z,0.00
2023-01-29T03:21:29.494Z,0.00
2023-01-29T03:22:29.841Z,0.00
2023-01-29T03:23:30.050Z,0.00
2023-01-29T03:24:29.490Z,0.00
2023-01-29T03:25:29.477Z,0.00
2023-01-29T03:26:29.605Z,0.00
2023-01-29T03:27:29.470Z,0.00
2023-01-29T03:28:29.609Z,0.00
2023-01-29T03:29:29.437Z,0.00
2023-01-29T03:30:29.431Z,0.00
2023-01-29T03:31:29.573Z,0.00
2023-01-29T03:32:29.429Z,0.00
2023-01-29T03:33:29.516Z,0.00
2023-01-29T03:34:29.407Z,0.00
2023-01-29T03:35:29.396Z,0.00
2023-01-29T03:36:29.417Z,0.00
2023-01-29T03:37:29.389Z,0.00
2023-01-29T03:38:29.385Z,0.00
2023-01-29T03:39:29.410Z,0.00
2023-01-29T03:40:29.364Z,0.00
2023-01-29T03:41:29.391Z,0.00
2023-01-29T03:42:29.364Z,0.00
2023-01-29T03:43:29.572Z,0.00
2023-01-29T03:44:29.353Z,0.00
2023-01-29T03:45:29.419Z,0.00
2023-01-29T03:46:29.359Z,0.00
2023-01-29T03:47:29.603Z,0.00
2023-01-29T03:48:29.325Z,0.00
2023-01-29T03:49:29.312Z,0.00
2023-01-29T03:50:29.311Z,0.00
2023-01-29T03:51:29.370Z,0.00
2023-01-29T03:52:29.299Z,0.00
2023-01-29T03:53:29.307Z,0.00
2023-01-29T03:54:29.692Z,0.00
2023-01-29T03:55:29.299Z,0.00
2023-01-29T03:56:29.289Z,0.00
2023-01-29T03:57:29.274Z,0.00
2023-01-29T03:58:29.290Z,0.00
2023-01-29T03:59:29.267Z,0.00
2023-01-29T04:00:29.809Z,0.00
2023-01-29T04:01:29.307Z,0.00
2023-01-29T04:02:29.247Z,0.00
2023-01-29T04:03:29.255Z,0.00
2023-01-29T04:04:29.355Z,0.00
2023-01-29T04:05:29.225Z,0.00
2023-01-29T04:06:29.225Z,0.00
2023-01-29T04:07:29.212Z,0.00
2023-01-29T04:08:29.200Z,0.00
2023-01-29T04:09:29.202Z,0.00
2023-01-29T04:10:29.186Z,0.00
2023-01-29T04:11:29.413Z,0.00
2023-01-29T04:12:29.182Z,0.00
2023-01-29T04:13:29.191Z,0.00
2023-01-29T04:14:29.184Z,0.00
2023-01-29T04:15:29.160Z,0.00
2023-01-29T04:16:29.718Z,0.00
2023-01-29T04:17:29.149Z,0.00
2023-01-29T04:18:29.142Z,0.00
2023-01-29T04:19:29.132Z,0.00
2023-01-29T04:20:29.203Z,0.00
2023-01-29T04:21:29.133Z,0.00
2023-01-29T04:22:29.131Z,0.00
2023-01-29T04:23:29.130Z,0.00
2023-01-29T04:24:29.913Z,0.00
2023-01-29T04:25:29.169Z,0.00
2023-01-29T04:26:29.119Z,0.00
2023-01-29T04:27:29.086Z,0.00
2023-01-29T04:28:29.093Z,0.00
2023-01-29T04:29:30.130Z,0.00
2023-01-29T04:30:29.078Z,0.00
2023-01-29T04:31:29.248Z,0.00
2023-01-29T04:32:29.076Z,0.00
2023-01-29T04:33:29.069Z,0.00
2023-01-29T04:34:29.044Z,0.00
2023-01-29T04:35:29.098Z,0.00
2023-01-29T04:36:29.066Z,0.00
2023-01-29T04:37:29.116Z,0.00
2023-01-29T04:38:29.838Z,0.00
2023-01-29T04:39:29.181Z,0.00
2023-01-29T04:40:29.014Z,0.00
2023-01-29T04:41:29.015Z,0.00
2023-01-29T04:42:29.001Z,0.00
2023-01-29T04:43:28.985Z,0.00
2023-01-29T04:44:28.979Z,0.00
2023-01-29T04:45:28.990Z,0.00
2023-01-29T04:46:28.989Z,0.00
2023-01-29T04:47:28.995Z,0.00
2023-01-29T04:48:28.963Z,0.00
2023-01-29T04:49:28.949Z,0.00
2023-01-29T04:50:28.980Z,0.00
2023-01-29T04:51:28.957Z,0.00
2023-01-29T04:52:28.937Z,0.00
2023-01-29T04:53:28.942Z,0.00
2023-01-29T04:54:28.928Z,0.00
2023-01-29T04:55:29.023Z,0.00
2023-01-29T04:56:28.917Z,0.00
2023-01-29T04:57:28.917Z,0.00
2023-01-29T04:58:28.897Z,0.00
2023-01-29T04:59:28.893Z,0.00
2023-01-29T05:00:29.088Z,0.00
2023-01-29T05:01:28.911Z,0.00
2023-01-29T05:02:28.885Z,0.00
2023-01-29T05:03:28.877Z,0.00
2023-01-29T05:04:28.864Z,0.00
2023-01-29T05:05:28.848Z,0.00
2023-01-29T05:06:28.948Z,0.00
2023-01-29T05:07:28.881Z,0.00
2023-01-29T05:08:28.841Z,0.00
2023-01-29T05:09:28.823Z,0.00
2023-01-29T05:10:28.835Z,0.00
2023-01-29T05:11:28.831Z,0.00
2023-01-29T05:12:28.809Z,0.00
2023-01-29T05:13:28.804Z,0.00
2023-01-29T05:14:28.799Z,0.00
2023-01-29T05:15:28.790Z,0.00
2023-01-29T05:16:28.846Z,0.00
2023-01-29T05:17:28.899Z,0.00
2023-01-29T05:18:29.238Z,0.00
2023-01-29T05:19:29.441Z,0.00
2023-01-29T05:20:28.755Z,0.00
2023-01-29T05:21:28.766Z,0.00
2023-01-29T05:22:28.745Z,0.00
2023-01-29T05:23:28.737Z,0.00
2023-01-29T05:24:28.767Z,0.00
2023-01-29T05:25:28.776Z,0.00
2023-01-29T05:26:28.738Z,0.00
2023-01-29T05:27:28.750Z,0.00
2023-01-29T05:28:28.708Z,0.00
2023-01-29T05:29:28.695Z,0.00
2023-01-29T05:30:28.695Z,0.00
2023-01-29T05:31:28.811Z,0.00
2023-01-29T05:32:28.682Z,0.00
2023-01-29T05:33:28.680Z,0.00
2023-01-29T05:34:28.670Z,0.00
2023-01-29T05:35:28.669Z,0.00
2023-01-29T05:36:28.726Z,0.00
2023-01-29T05:37:28.755Z,0.00
2023-01-29T05:38:28.832Z,0.00
2023-01-29T05:39:28.647Z,0.00
2023-01-29T05:40:28.681Z,0.00
2023-01-29T05:41:28.702Z,0.00
2023-01-29T05:42:28.762Z,0.00
2023-01-29T05:43:28.897Z,0.00
2023-01-29T05:44:28.723Z,0.00
2023-01-29T05:45:28.610Z,0.00
2023-01-29T05:46:28.652Z,0.00
2023-01-29T05:47:29.018Z,0.00
2023-01-29T05:48:29.097Z,0.00
2023-01-29T05:49:28.877Z,0.00
2023-01-29T05:50:29.019Z,0.00
2023-01-29T05:51:28.628Z,0.00
2023-01-29T05:52:28.560Z,0.00
2023-01-29T05:53:28.549Z,0.00
2023-01-29T05:54:29.083Z,0.00
2023-01-29T05:55:28.710Z,0.00
2023-01-29T05:56:28.569Z,0.00
2023-01-29T05:57:29.138Z,0.00
2023-01-29T05:58:28.525Z,0.00
2023-01-29T05:59:28.507Z,0.00
2023-01-29T06:00:29.088Z,0.00
2023-01-29T06:01:29.142Z,0.00
2023-01-29T06:02:28.889Z,0.00
2023-01-29T06:03:28.485Z,0.00
2023-01-29T06:04:28.493Z,0.00
2023-01-29T06:05:28.475Z,0.00
2023-01-29T06:06:28.522Z,0.00
2023-01-29T06:07:28.592Z,0.00
2023-01-29T06:08:28.523Z,0.00
2023-01-29T06:09:28.511Z,0.00
2023-01-29T06:10:28.743Z,0.00
2023-01-29T06:11:28.750Z,0.00
2023-01-29T06:12:28.440Z,0.00
2023-01-29T06:13:28.769Z,0.00
2023-01-29T06:14:28.562Z,0.00
2023-01-29T06:15:28.420Z,0.00
2023-01-29T06:16:28.623Z,0.00
2023-01-29T06:17:28.444Z,0.00
2023-01-29T06:18:28.410Z,0.00
2023-01-29T06:19:28.423Z,0.00
2023-01-29T06:20:29.858Z,0.00
2023-01-29T06:21:28.817Z,0.00
2023-01-29T06:22:28.837Z,0.00
2023-01-29T06:23:28.828Z,0.00
2023-01-29T06:24:28.494Z,0.00
2023-01-29T06:25:28.387Z,0.00
2023-01-29T06:26:28.872Z,0.00
2023-01-29T06:27:28.521Z,0.00
2023-01-29T06:28:29.075Z,0.00
2023-01-29T06:29:28.667Z,0.00
2023-01-29T06:30:29.097Z,0.00
2023-01-29T06:31:38.170Z,0.00
2023-01-29T06:32:28.897Z,0.00
2023-01-29T06:33:29.472Z,0.00
2023-01-29T06:34:28.356Z,0.00
2023-01-29T06:35:28.305Z,0.00
2023-01-29T06:36:28.325Z,0.00
2023-01-29T06:37:29.273Z,0.00
2023-01-29T06:38:29.136Z,0.00
2023-01-29T06:39:28.932Z,0.00
2023-01-29T06:40:28.953Z,0.00
2023-01-29T06:41:28.273Z,4.00
2023-01-29T06:42:28.294Z,4.00
2023-01-29T06:43:28.544Z,1.00
2023-01-29T06:44:28.761Z,0.00
2023-01-29T06:45:28.403Z,1.00
2023-01-29T06:46:28.792Z,1.00
2023-01-29T06:47:28.809Z,5.00
2023-01-29T06:48:28.410Z,1.00
2023-01-29T06:49:28.268Z,3.00
2023-01-29T06:50:28.253Z,3.00
2023-01-29T06:51:28.250Z,10.00
2023-01-29T06:52:28.260Z,15.00
2023-01-29T06:53:28.227Z,11.00
2023-01-29T06:54:28.450Z,8.00
2023-01-29T06:55:28.489Z,7.00
2023-01-29T06:56:28.482Z,9.00
2023-01-29T06:57:28.451Z,9.00
2023-01-29T06:58:28.476Z,25.00
2023-01-29T06:59:28.666Z,51.00
2023-01-29T07:00:30.623Z,47.00
2023-01-29T07:01:36.236Z,47.00
2023-01-29T07:02:28.761Z,51.00
2023-01-29T07:03:28.505Z,56.00
2023-01-29T07:04:28.153Z,61.00
2023-01-29T07:05:28.901Z,79.00
2023-01-29T07:06:28.142Z,71.00
2023-01-29T07:07:28.303Z,89.00
2023-01-29T07:08:28.147Z,106.00
2023-01-29T07:09:28.392Z,124.00
2023-01-29T07:10:28.540Z,124.00
2023-01-29T07:11:28.737Z,138.00
2023-01-29T07:12:28.143Z,139.00
2023-01-29T07:13:28.087Z,153.00
2023-01-29T07:14:28.784Z,150.00
2023-01-29T07:15:28.390Z,155.00
2023-01-29T07:16:28.322Z,169.00
2023-01-29T07:17:28.570Z,192.00
2023-01-29T07:18:28.376Z,212.00
2023-01-29T07:19:28.031Z,231.00
2023-01-29T07:20:28.191Z,255.00
2023-01-29T07:21:28.428Z,275.00
2023-01-29T07:22:28.041Z,290.00
2023-01-29T07:23:28.448Z,320.00
2023-01-29T07:24:28.878Z,295.00
2023-01-29T07:25:28.013Z,305.00
2023-01-29T07:26:28.846Z,338.00
2023-01-29T07:27:28.027Z,394.00
2023-01-29T07:28:28.037Z,405.00
2023-01-29T07:29:28.050Z,427.00
2023-01-29T07:30:28.143Z,406.00
2023-01-29T07:31:28.130Z,368.00
2023-01-29T07:32:28.264Z,399.00
2023-01-29T07:33:27.947Z,443.00
2023-01-29T07:34:28.085Z,468.00
2023-01-29T07:35:28.083Z,521.00
2023-01-29T07:36:27.952Z,590.00
2023-01-29T07:37:28.091Z,584.00
2023-01-29T07:38:28.332Z,559.00
2023-01-29T07:39:27.918Z,562.00
2023-01-29T07:40:28.196Z,699.00
2023-01-29T07:41:27.912Z,792.00
2023-01-29T07:42:27.972Z,789.00
2023-01-29T07:43:27.967Z,811.00
2023-01-29T07:44:27.972Z,809.00
2023-01-29T07:45:28.610Z,795.00
2023-01-29T07:46:28.570Z,795.00
2023-01-29T07:47:27.988Z,812.00
2023-01-29T07:48:27.863Z,835.00
2023-01-29T07:49:27.885Z,875.00
2023-01-29T07:50:27.895Z,888.00
2023-01-29T07:51:27.893Z,899.00
2023-01-29T07:52:27.897Z,930.00
2023-01-29T07:53:27.912Z,946.00
2023-01-29T07:54:27.918Z,963.00
2023-01-29T07:55:27.939Z,1021.00
2023-01-29T07:56:27.830Z,1061.00
2023-01-29T07:57:27.963Z,1097.00
2023-01-29T07:58:27.985Z,1100.00
2023-01-29T07:59:27.986Z,1092.00
2023-01-29T08:00:28.038Z,1137.00
2023-01-29T08:01:27.779Z,1190.00
2023-01-29T08:02:28.089Z,1263.00
2023-01-29T08:03:28.047Z,1335.00
2023-01-29T08:04:27.733Z,1369.00
2023-01-29T08:05:27.764Z,1353.00
2023-01-29T08:06:27.734Z,1386.00
2023-01-29T08:07:27.884Z,1471.00
2023-01-29T08:08:27.712Z,1565.00
2023-01-29T08:09:27.704Z,1637.00
2023-01-29T08:10:27.778Z,1659.00
2023-01-29T08:11:27.720Z,1671.00
2023-01-29T08:12:27.731Z,1696.00
2023-01-29T08:13:27.688Z,1808.00
2023-01-29T08:14:27.670Z,2012.00
2023-01-29T08:15:27.820Z,2165.00
2023-01-29T08:16:27.785Z,2230.00
2023-01-29T08:17:27.683Z,2298.00
2023-01-29T08:18:27.803Z,2378.00
2023-01-29T08:19:27.809Z,2437.00
2023-01-29T08:20:27.684Z,2498.00
2023-01-29T08:21:27.646Z,2534.00
2023-01-29T08:22:27.630Z,2531.00
2023-01-29T08:23:27.633Z,2505.00
2023-01-29T08:24:36.058Z,2424.00
2023-01-29T08:25:28.007Z,2379.00
2023-01-29T08:26:27.653Z,2317.00
2023-01-29T08:27:27.843Z,2300.00
2023-01-29T08:28:27.831Z,2384.00
2023-01-29T08:29:27.617Z,2435.00
2023-01-29T08:30:27.592Z,2410.00
2023-01-29T08:31:27.913Z,2422.00
2023-01-29T08:32:27.625Z,2461.00
2023-01-29T08:33:38.959Z,2498.00
2023-01-29T08:34:27.644Z,2480.00
2023-01-29T08:35:27.854Z,2518.00
2023-01-29T08:36:27.865Z,2595.00
2023-01-29T08:37:27.739Z,2643.00
2023-01-29T08:38:27.872Z,2637.00
2023-01-29T08:39:27.604Z,2668.00
2023-01-29T08:40:27.637Z,2668.00
2023-01-29T08:41:27.524Z,2617.00
2023-01-29T08:42:27.752Z,2530.00
2023-01-29T08:43:27.701Z,2441.00
2023-01-29T08:44:27.481Z,2390.00
2023-01-29T08:45:27.785Z,2408.00
2023-01-29T08:46:27.802Z,2472.00
2023-01-29T08:47:29.410Z,2515.00
2023-01-29T08:48:27.460Z,2559.00
2023-01-29T08:49:27.561Z,2603.00
2023-01-29T08:50:28.491Z,2650.00
2023-01-29T08:51:27.591Z,2704.00
2023-01-29T08:52:27.978Z,2822.00
2023-01-29T08:53:28.038Z,2963.00
2023-01-29T08:54:27.465Z,3109.00
2023-01-29T08:55:27.786Z,3238.00
2023-01-29T08:56:27.620Z,3330.00
2023-01-29T08:57:28.216Z,3361.00
2023-01-29T08:58:28.217Z,3457.00
2023-01-29T08:59:27.470Z,3841.00
2023-01-29T09:00:28.236Z,4045.00
2023-01-29T09:01:27.693Z,3958.00
2023-01-29T09:02:27.451Z,3783.00
2023-01-29T09:03:28.936Z,4733.00
2023-01-29T09:04:27.635Z,6059.00
2023-01-29T09:05:28.285Z,6200.00
2023-01-29T09:06:27.516Z,6345.00
2023-01-29T09:07:27.735Z,6539.00
2023-01-29T09:08:27.335Z,6775.00
2023-01-29T09:09:27.361Z,7000.00
2023-01-29T09:10:27.716Z,6863.00
2023-01-29T09:11:27.654Z,6502.00
2023-01-29T09:12:27.356Z,6076.00
2023-01-29T09:13:27.311Z,5944.00
2023-01-29T09:14:27.311Z,5309.00
2023-01-29T09:15:27.316Z,4667.00
2023-01-29T09:16:27.337Z,4254.00
2023-01-29T09:17:27.320Z,4340.00
2023-01-29T09:18:27.329Z,4417.00
2023-01-29T09:19:27.329Z,4308.00
2023-01-29T09:20:27.330Z,4212.00
2023-01-29T09:21:27.431Z,3869.00
2023-01-29T09:22:27.433Z,3742.00
2023-01-29T09:23:27.434Z,3712.00
2023-01-29T09:24:27.441Z,3769.00
2023-01-29T09:25:27.453Z,3735.00
2023-01-29T09:26:27.535Z,3620.00
2023-01-29T09:27:27.457Z,3609.00
2023-01-29T09:28:27.457Z,3651.00
2023-01-29T09:29:27.216Z,3662.00
2023-01-29T09:30:27.477Z,3777.00
2023-01-29T09:31:27.610Z,4040.00
2023-01-29T09:32:52.032Z,4371.00
2023-01-29T09:33:27.503Z,4770.00
2023-01-29T09:34:27.635Z,4894.00
2023-01-29T09:35:27.666Z,4788.00
2023-01-29T09:36:27.443Z,4669.00
2023-01-29T09:37:27.245Z,4632.00
2023-01-29T09:38:27.265Z,4822.00
2023-01-29T09:39:27.665Z,5154.00
2023-01-29T09:40:27.718Z,5397.00
2023-01-29T09:41:27.686Z,5502.00
2023-01-29T09:42:27.144Z,5768.00
2023-01-29T09:43:27.695Z,6237.00
2023-01-29T09:44:27.110Z,6745.00
2023-01-29T09:45:27.136Z,7005.00
2023-01-29T09:46:27.110Z,7132.00
2023-01-29T09:47:27.129Z,7362.00
2023-01-29T09:48:27.723Z,7781.00
2023-01-29T09:49:27.207Z,8347.00
2023-01-29T09:50:27.754Z,8386.00
2023-01-29T09:51:27.419Z,8401.00
2023-01-29T09:52:27.081Z,8618.00
2023-01-29T09:53:27.064Z,8713.00
2023-01-29T09:54:27.048Z,8733.00
2023-01-29T09:55:27.169Z,8751.00
2023-01-29T09:56:27.158Z,8857.00
2023-01-29T09:57:27.182Z,8948.00
2023-01-29T09:58:27.181Z,8942.00
2023-01-29T09:59:27.188Z,8692.00
2023-01-29T10:00:27.198Z,8451.00
2023-01-29T10:01:27.297Z,8317.00
2023-01-29T10:02:27.257Z,7879.00
2023-01-29T10:03:27.030Z,6862.00
2023-01-29T10:04:27.043Z,5993.00
2023-01-29T10:05:27.227Z,5606.00
2023-01-29T10:06:27.027Z,5371.00
2023-01-29T10:07:27.046Z,5414.00
2023-01-29T10:08:26.981Z,5397.00
2023-01-29T10:09:27.271Z,5470.00
2023-01-29T10:10:27.268Z,5497.00
2023-01-29T10:11:26.972Z,5438.00
2023-01-29T10:12:26.938Z,5613.00
2023-01-29T10:13:26.984Z,6285.00
2023-01-29T10:14:27.377Z,7185.00
2023-01-29T10:15:27.395Z,7400.00
2023-01-29T10:16:27.407Z,5692.00
2023-01-29T10:17:26.904Z,5793.00
2023-01-29T10:18:27.419Z,6976.00
2023-01-29T10:19:26.914Z,6621.00
2023-01-29T10:20:26.878Z,7345.00
2023-01-29T10:21:27.109Z,8051.00
2023-01-29T10:22:26.941Z,7676.00
2023-01-29T10:23:27.460Z,8263.00
2023-01-29T10:24:27.509Z,7918.00
2023-01-29T10:25:27.264Z,8143.00
2023-01-29T10:26:27.145Z,7855.00
2023-01-29T10:27:27.480Z,7842.00
2023-01-29T10:28:27.484Z,8184.00
2023-01-29T10:29:26.895Z,8534.00
2023-01-29T10:30:26.882Z,8945.00
2023-01-29T10:31:26.889Z,9172.00
2023-01-29T10:32:26.829Z,9177.00
2023-01-29T10:33:26.899Z,8895.00
2023-01-29T10:34:27.027Z,8885.00
2023-01-29T10:35:27.020Z,9692.00
2023-01-29T10:36:27.026Z,9794.00
2023-01-29T10:37:27.131Z,8645.00
2023-01-29T10:38:27.137Z,8058.00
2023-01-29T10:39:27.259Z,8586.00
2023-01-29T10:40:27.174Z,8699.00
2023-01-29T10:41:26.947Z,8613.00
2023-01-29T10:42:27.278Z,8498.00
2023-01-29T10:43:27.380Z,8752.00
2023-01-29T10:44:27.376Z,8788.00
2023-01-29T10:45:27.508Z,8934.00
2023-01-29T10:46:26.776Z,9250.00
2023-01-29T10:47:29.272Z,9545.00
2023-01-29T10:48:27.007Z,9819.00
2023-01-29T10:49:27.214Z,9597.00
2023-01-29T10:50:26.718Z,9892.00
2023-01-29T10:51:26.985Z,10222.00
2023-01-29T10:52:27.233Z,9712.00
2023-01-29T10:53:26.947Z,10189.00
2023-01-29T10:54:27.453Z,10421.00
2023-01-29T10:55:26.742Z,10386.00
2023-01-29T10:56:26.703Z,9984.00
2023-01-29T10:57:26.671Z,10484.00
2023-01-29T10:58:26.674Z,9318.00
2023-01-29T10:59:26.632Z,8703.00
2023-01-29T11:00:26.674Z,8330.00
2023-01-29T11:01:26.890Z,7871.00
2023-01-29T11:02:26.654Z,7783.00
2023-01-29T11:03:29.097Z,7612.00
2023-01-29T11:04:27.309Z,7118.00
2023-01-29T11:05:27.014Z,7864.00
2023-01-29T11:06:27.129Z,7874.00
2023-01-29T11:07:26.610Z,7011.00
2023-01-29T11:08:26.629Z,6553.00
2023-01-29T11:09:26.642Z,6965.00
2023-01-29T11:10:26.633Z,7131.00
2023-01-29T11:11:26.748Z,7343.00
2023-01-29T11:12:26.809Z,6740.00
2023-01-29T11:13:26.767Z,7077.00
2023-01-29T11:14:26.775Z,7820.00
2023-01-29T11:15:26.793Z,8542.00
2023-01-29T11:16:26.878Z,8520.00
2023-01-29T11:17:26.599Z,8247.00
2023-01-29T11:18:26.797Z,8501.00
2023-01-29T11:19:27.016Z,7622.00
2023-01-29T11:20:26.534Z,6149.00
2023-01-29T11:21:26.920Z,7090.00
2023-01-29T11:22:27.134Z,8319.00
2023-01-29T11:23:26.642Z,7595.00
2023-01-29T11:24:26.637Z,5363.00
2023-01-29T11:25:26.939Z,7537.00
2023-01-29T11:26:26.488Z,11767.00
2023-01-29T11:27:26.524Z,9397.00
2023-01-29T11:28:26.453Z,5884.00
2023-01-29T11:29:26.675Z,6602.00
2023-01-29T11:30:26.476Z,7626.00
2023-01-29T11:31:27.338Z,6847.00
2023-01-29T11:32:26.909Z,6435.00
2023-01-29T11:33:27.192Z,6374.00
2023-01-29T11:34:26.422Z,6101.00
2023-01-29T11:35:27.225Z,5759.00
2023-01-29T11:36:28.419Z,5509.00
2023-01-29T11:37:27.014Z,5222.00
2023-01-29T11:38:27.288Z,5359.00
2023-01-29T11:39:26.955Z,6425.00
2023-01-29T11:40:26.419Z,7322.00
2023-01-29T11:41:26.631Z,7297.00
2023-01-29T11:42:26.369Z,7452.00
2023-01-29T11:43:26.359Z,7525.00
2023-01-29T11:44:27.200Z,7657.00
2023-01-29T11:45:26.381Z,7640.00
2023-01-29T11:46:26.351Z,7559.00
2023-01-29T11:47:26.390Z,7939.00
2023-01-29T11:48:26.469Z,7693.00
2023-01-29T11:49:26.398Z,7397.00
2023-01-29T11:50:26.612Z,7372.00
2023-01-29T11:51:26.495Z,7242.00
2023-01-29T11:52:26.626Z,7188.00
2023-01-29T11:53:26.714Z,6838.00
2023-01-29T11:54:26.636Z,6644.00
2023-01-29T11:55:26.318Z,6767.00
2023-01-29T11:56:26.646Z,6937.00
2023-01-29T11:57:26.866Z,7085.00
2023-01-29T11:58:26.956Z,7097.00
2023-01-29T11:59:26.345Z,7345.00
2023-01-29T12:00:26.275Z,7320.00
2023-01-29T12:01:26.275Z,7283.00
2023-01-29T12:02:26.284Z,7446.00
2023-01-29T12:03:26.320Z,7700.00
2023-01-29T12:04:26.310Z,7759.00
2023-01-29T12:05:26.314Z,7677.00
2023-01-29T12:06:26.323Z,7789.00
2023-01-29T12:07:26.943Z,8132.00
2023-01-29T12:08:26.201Z,8127.00
2023-01-29T12:09:26.225Z,7993.00
2023-01-29T12:10:26.221Z,7688.00
2023-01-29T12:11:26.223Z,7260.00
2023-01-29T12:12:26.175Z,7276.00
2023-01-29T12:13:26.177Z,7634.00
2023-01-29T12:14:26.173Z,7996.00
2023-01-29T12:15:26.272Z,7717.00
2023-01-29T12:16:26.213Z,7111.00
2023-01-29T12:17:26.307Z,6920.00
2023-01-29T12:18:26.309Z,6681.00
2023-01-29T12:19:26.323Z,6402.00
2023-01-29T12:20:26.341Z,6761.00
2023-01-29T12:21:26.360Z,6804.00
2023-01-29T12:22:26.109Z,6615.00
2023-01-29T12:23:26.110Z,6376.00
2023-01-29T12:24:26.123Z,6210.00
2023-01-29T12:25:26.241Z,6216.00
2023-01-29T12:26:26.264Z,6111.00
2023-01-29T12:27:26.275Z,5763.00
2023-01-29T12:28:26.332Z,6155.00
2023-01-29T12:29:26.059Z,6544.00
2023-01-29T12:30:26.554Z,6224.00
2023-01-29T12:31:26.224Z,6313.00
2023-01-29T12:32:26.511Z,6689.00
2023-01-29T12:33:26.498Z,6715.00
2023-01-29T12:34:26.505Z,6398.00
2023-01-29T12:35:26.530Z,6404.00
2023-01-29T12:36:26.542Z,6169.00
2023-01-29T12:37:26.017Z,6097.00
2023-01-29T12:38:26.004Z,6260.00
2023-01-29T12:39:25.995Z,6254.00
2023-01-29T12:40:26.144Z,6173.00
2023-01-29T12:41:26.030Z,6172.00
2023-01-29T12:42:26.055Z,6242.00
2023-01-29T12:43:26.030Z,6134.00
2023-01-29T12:44:26.033Z,6115.00
2023-01-29T12:45:26.041Z,6103.00